sensor_id;sensor_type;location;lat;lon;timestamp;P1;durP1;ratioP1;P2;durP2;ratioP2
56997;SDS011;42890;44.244;22.530;2022-07-29T00:01:31;4.13;;;3.72;;
56997;SDS011;42890;44.244;22.530;2022-07-29T00:03:57;3.90;;;3.58;;
56997;SDS011;42890;44.244;22.530;2022-07-29T00:06:23;4.07;;;3.67;;
56997;SDS011;42890;44.244;22.530;2022-07-29T00:08:49;6.03;;;4.00;;
56997;SDS011;42890;44.244;22.530;2022-07-29T00:11:15;4.55;;;3.78;;
56997;SDS011;42890;44.244;22.530;2022-07-29T00:13:41;4.82;;;3.85;;
56997;SDS011;42890;44.244;22.530;2022-07-29T00:16:07;4.38;;;3.97;;
56997;SDS011;42890;44.244;22.530;2022-07-29T00:18:34;4.53;;;4.15;;
56997;SDS011;42890;44.244;22.530;2022-07-29T00:21:00;9.00;;;4.57;;
56997;SDS011;42890;44.244;22.530;2022-07-29T00:23:26;5.90;;;4.13;;
56997;SDS011;42890;44.244;22.530;2022-07-29T00:25:52;8.68;;;4.40;;
56997;SDS011;42890;44.244;22.530;2022-07-29T00:28:18;4.30;;;4.00;;
56997;SDS011;42890;44.244;22.530;2022-07-29T00:30:44;4.57;;;4.18;;
56997;SDS011;42890;44.244;22.530;2022-07-29T00:33:10;5.00;;;4.60;;
56997;SDS011;42890;44.244;22.530;2022-07-29T00:35:36;4.90;;;4.50;;
56997;SDS011;42890;44.244;22.530;2022-07-29T00:38:09;5.60;;;4.28;;
56997;SDS011;42890;44.244;22.530;2022-07-29T00:40:35;6.88;;;4.68;;
56997;SDS011;42890;44.244;22.530;2022-07-29T00:43:01;5.93;;;4.95;;
56997;SDS011;42890;44.244;22.530;2022-07-29T00:45:27;6.30;;;5.00;;
56997;SDS011;42890;44.244;22.530;2022-07-29T00:47:55;5.28;;;4.78;;
56997;SDS011;42890;44.244;22.530;2022-07-29T00:50:21;8.95;;;5.15;;
56997;SDS011;42890;44.244;22.530;2022-07-29T00:52:47;5.97;;;5.40;;
56997;SDS011;42890;44.244;22.530;2022-07-29T00:55:14;5.78;;;5.28;;
56997;SDS011;42890;44.244;22.530;2022-07-29T00:57:41;5.82;;;5.43;;
56997;SDS011;42890;44.244;22.530;2022-07-29T01:00:09;8.02;;;5.57;;
56997;SDS011;42890;44.244;22.530;2022-07-29T01:02:36;6.97;;;5.55;;
56997;SDS011;42890;44.244;22.530;2022-07-29T01:05:03;8.02;;;5.10;;
56997;SDS011;42890;44.244;22.530;2022-07-29T01:07:29;8.50;;;5.55;;
56997;SDS011;42890;44.244;22.530;2022-07-29T01:09:55;5.57;;;5.10;;
56997;SDS011;42890;44.244;22.530;2022-07-29T01:12:25;5.68;;;5.07;;
56997;SDS011;42890;44.244;22.530;2022-07-29T01:14:53;5.35;;;4.85;;
56997;SDS011;42890;44.244;22.530;2022-07-29T01:17:27;8.23;;;5.07;;
56997;SDS011;42890;44.244;22.530;2022-07-29T01:31:03;5.57;;;4.60;;
56997;SDS011;42890;44.244;22.530;2022-07-29T01:33:30;7.82;;;4.70;;
56997;SDS011;42890;44.244;22.530;2022-07-29T01:36:29;6.50;;;4.15;;
56997;SDS011;42890;44.244;22.530;2022-07-29T01:39:37;7.45;;;4.35;;
56997;SDS011;42890;44.244;22.530;2022-07-29T01:41:58;6.53;;;4.35;;
56997;SDS011;42890;44.244;22.530;2022-07-29T01:44:30;5.30;;;4.80;;
56997;SDS011;42890;44.244;22.530;2022-07-29T01:46:58;7.25;;;4.70;;
56997;SDS011;42890;44.244;22.530;2022-07-29T01:49:28;6.25;;;5.25;;
56997;SDS011;42890;44.244;22.530;2022-07-29T01:52:00;4.85;;;4.45;;
56997;SDS011;42890;44.244;22.530;2022-07-29T01:56:55;9.20;;;5.03;;
56997;SDS011;42890;44.244;22.530;2022-07-29T01:59:22;5.68;;;4.90;;
56997;SDS011;42890;44.244;22.530;2022-07-29T02:01:49;6.35;;;5.32;;
56997;SDS011;42890;44.244;22.530;2022-07-29T02:04:16;7.55;;;5.35;;
56997;SDS011;42890;44.244;22.530;2022-07-29T02:06:43;5.25;;;4.75;;
56997;SDS011;42890;44.244;22.530;2022-07-29T02:09:10;5.50;;;5.05;;
56997;SDS011;42890;44.244;22.530;2022-07-29T02:11:38;6.20;;;5.10;;
56997;SDS011;42890;44.244;22.530;2022-07-29T02:14:05;7.75;;;5.78;;
56997;SDS011;42890;44.244;22.530;2022-07-29T02:16:32;7.07;;;4.80;;
56997;SDS011;42890;44.244;22.530;2022-07-29T02:19:00;7.40;;;5.28;;
56997;SDS011;42890;44.244;22.530;2022-07-29T02:21:26;7.45;;;5.47;;
56997;SDS011;42890;44.244;22.530;2022-07-29T02:23:53;7.63;;;5.65;;
56997;SDS011;42890;44.244;22.530;2022-07-29T02:26:20;6.75;;;6.03;;
56997;SDS011;42890;44.244;22.530;2022-07-29T02:28:48;8.13;;;5.90;;
56997;SDS011;42890;44.244;22.530;2022-07-29T02:31:15;6.13;;;5.63;;
56997;SDS011;42890;44.244;22.530;2022-07-29T02:33:42;6.57;;;5.90;;
56997;SDS011;42890;44.244;22.530;2022-07-29T02:36:09;6.97;;;6.28;;
56997;SDS011;42890;44.244;22.530;2022-07-29T02:38:36;7.38;;;5.80;;
56997;SDS011;42890;44.244;22.530;2022-07-29T02:41:16;9.65;;;6.15;;
56997;SDS011;42890;44.244;22.530;2022-07-29T02:43:43;8.07;;;6.30;;
56997;SDS011;42890;44.244;22.530;2022-07-29T02:46:11;8.27;;;6.50;;
56997;SDS011;42890;44.244;22.530;2022-07-29T02:48:41;8.30;;;6.40;;
56997;SDS011;42890;44.244;22.530;2022-07-29T02:51:08;11.20;;;6.47;;
56997;SDS011;42890;44.244;22.530;2022-07-29T02:53:37;7.28;;;6.63;;
56997;SDS011;42890;44.244;22.530;2022-07-29T02:56:06;8.18;;;7.43;;
56997;SDS011;42890;44.244;22.530;2022-07-29T02:58:34;7.90;;;7.20;;
56997;SDS011;42890;44.244;22.530;2022-07-29T03:01:03;10.68;;;6.97;;
56997;SDS011;42890;44.244;22.530;2022-07-29T03:03:32;8.40;;;7.38;;
56997;SDS011;42890;44.244;22.530;2022-07-29T03:06:00;9.60;;;7.45;;
56997;SDS011;42890;44.244;22.530;2022-07-29T03:08:26;8.05;;;7.32;;
56997;SDS011;42890;44.244;22.530;2022-07-29T03:10:53;8.35;;;7.55;;
56997;SDS011;42890;44.244;22.530;2022-07-29T03:13:19;8.40;;;7.70;;
56997;SDS011;42890;44.244;22.530;2022-07-29T03:15:46;9.68;;;7.70;;
56997;SDS011;42890;44.244;22.530;2022-07-29T03:18:12;8.20;;;7.38;;
56997;SDS011;42890;44.244;22.530;2022-07-29T03:20:39;7.90;;;7.10;;
56997;SDS011;42890;44.244;22.530;2022-07-29T03:23:05;8.27;;;7.10;;
56997;SDS011;42890;44.244;22.530;2022-07-29T03:25:32;11.15;;;7.47;;
56997;SDS011;42890;44.244;22.530;2022-07-29T03:27:58;8.30;;;7.35;;
56997;SDS011;42890;44.244;22.530;2022-07-29T03:30:24;8.57;;;7.60;;
56997;SDS011;42890;44.244;22.530;2022-07-29T03:32:51;8.95;;;8.07;;
56997;SDS011;42890;44.244;22.530;2022-07-29T03:35:17;10.23;;;7.43;;
56997;SDS011;42890;44.244;22.530;2022-07-29T03:37:44;8.85;;;8.02;;
56997;SDS011;42890;44.244;22.530;2022-07-29T03:40:11;14.98;;;8.40;;
56997;SDS011;42890;44.244;22.530;2022-07-29T03:42:39;9.52;;;8.75;;
56997;SDS011;42890;44.244;22.530;2022-07-29T03:45:07;12.82;;;9.13;;
56997;SDS011;42890;44.244;22.530;2022-07-29T03:47:35;10.05;;;8.57;;
56997;SDS011;42890;44.244;22.530;2022-07-29T03:50:05;13.98;;;12.43;;
56997;SDS011;42890;44.244;22.530;2022-07-29T03:52:31;108.93;;;67.57;;
56997;SDS011;42890;44.244;22.530;2022-07-29T03:54:58;64.40;;;52.45;;
56997;SDS011;42890;44.244;22.530;2022-07-29T03:57:24;26.48;;;23.65;;
56997;SDS011;42890;44.244;22.530;2022-07-29T03:59:51;14.77;;;10.43;;
56997;SDS011;42890;44.244;22.530;2022-07-29T04:02:18;9.70;;;8.70;;
56997;SDS011;42890;44.244;22.530;2022-07-29T04:04:44;17.77;;;9.35;;
56997;SDS011;42890;44.244;22.530;2022-07-29T04:07:14;18.73;;;9.32;;
56997;SDS011;42890;44.244;22.530;2022-07-29T04:09:41;10.45;;;9.40;;
56997;SDS011;42890;44.244;22.530;2022-07-29T04:12:07;10.50;;;9.50;;
56997;SDS011;42890;44.244;22.530;2022-07-29T04:14:33;10.00;;;9.07;;
56997;SDS011;42890;44.244;22.530;2022-07-29T04:17:00;10.32;;;9.32;;
56997;SDS011;42890;44.244;22.530;2022-07-29T04:19:26;12.15;;;9.13;;
56997;SDS011;42890;44.244;22.530;2022-07-29T04:21:53;10.52;;;9.43;;
56997;SDS011;42890;44.244;22.530;2022-07-29T04:24:19;11.00;;;9.57;;
56997;SDS011;42890;44.244;22.530;2022-07-29T04:26:46;11.23;;;9.27;;
56997;SDS011;42890;44.244;22.530;2022-07-29T04:29:12;10.70;;;9.80;;
56997;SDS011;42890;44.244;22.530;2022-07-29T04:31:39;11.32;;;10.23;;
56997;SDS011;42890;44.244;22.530;2022-07-29T04:34:05;11.52;;;10.45;;
56997;SDS011;42890;44.244;22.530;2022-07-29T04:36:32;11.00;;;9.93;;
56997;SDS011;42890;44.244;22.530;2022-07-29T04:38:58;11.23;;;10.15;;
56997;SDS011;42890;44.244;22.530;2022-07-29T04:41:26;12.55;;;10.82;;
56997;SDS011;42890;44.244;22.530;2022-07-29T04:43:52;12.77;;;11.68;;
56997;SDS011;42890;44.244;22.530;2022-07-29T04:46:18;14.90;;;10.60;;
56997;SDS011;42890;44.244;22.530;2022-07-29T04:48:47;13.85;;;11.35;;
56997;SDS011;42890;44.244;22.530;2022-07-29T04:51:16;12.48;;;11.38;;
56997;SDS011;42890;44.244;22.530;2022-07-29T04:53:42;13.75;;;12.38;;
56997;SDS011;42890;44.244;22.530;2022-07-29T04:56:08;14.60;;;12.25;;
56997;SDS011;42890;44.244;22.530;2022-07-29T04:58:35;12.90;;;11.70;;
56997;SDS011;42890;44.244;22.530;2022-07-29T05:01:01;15.43;;;12.75;;
56997;SDS011;42890;44.244;22.530;2022-07-29T05:03:28;14.23;;;12.82;;
56997;SDS011;42890;44.244;22.530;2022-07-29T05:05:54;15.48;;;12.85;;
56997;SDS011;42890;44.244;22.530;2022-07-29T05:08:20;13.63;;;12.52;;
56997;SDS011;42890;44.244;22.530;2022-07-29T05:10:47;14.25;;;13.25;;
56997;SDS011;42890;44.244;22.530;2022-07-29T05:13:13;14.00;;;12.60;;
56997;SDS011;42890;44.244;22.530;2022-07-29T05:15:39;15.05;;;13.70;;
56997;SDS011;42890;44.244;22.530;2022-07-29T05:18:05;13.68;;;12.50;;
56997;SDS011;42890;44.244;22.530;2022-07-29T05:20:31;14.55;;;12.93;;
56997;SDS011;42890;44.244;22.530;2022-07-29T05:22:59;17.88;;;13.88;;
56997;SDS011;42890;44.244;22.530;2022-07-29T05:25:26;14.38;;;12.98;;
56997;SDS011;42890;44.244;22.530;2022-07-29T05:27:52;13.98;;;12.57;;
56997;SDS011;42890;44.244;22.530;2022-07-29T05:30:19;13.60;;;12.23;;
56997;SDS011;42890;44.244;22.530;2022-07-29T05:32:45;13.68;;;12.50;;
56997;SDS011;42890;44.244;22.530;2022-07-29T05:35:12;12.80;;;11.73;;
56997;SDS011;42890;44.244;22.530;2022-07-29T05:37:38;13.00;;;11.80;;
56997;SDS011;42890;44.244;22.530;2022-07-29T05:40:05;12.95;;;11.75;;
56997;SDS011;42890;44.244;22.530;2022-07-29T05:42:32;12.45;;;11.45;;
56997;SDS011;42890;44.244;22.530;2022-07-29T05:44:58;13.15;;;11.90;;
56997;SDS011;42890;44.244;22.530;2022-07-29T05:47:25;14.38;;;12.05;;
56997;SDS011;42890;44.244;22.530;2022-07-29T05:49:51;13.35;;;12.05;;
56997;SDS011;42890;44.244;22.530;2022-07-29T05:52:17;13.02;;;11.70;;
56997;SDS011;42890;44.244;22.530;2022-07-29T05:54:43;13.70;;;11.70;;
56997;SDS011;42890;44.244;22.530;2022-07-29T05:57:20;12.13;;;11.02;;
56997;SDS011;42890;44.244;22.530;2022-07-29T05:59:47;11.98;;;10.88;;
56997;SDS011;42890;44.244;22.530;2022-07-29T06:02:13;20.58;;;11.88;;
56997;SDS011;42890;44.244;22.530;2022-07-29T06:04:40;13.13;;;11.88;;
56997;SDS011;42890;44.244;22.530;2022-07-29T06:07:06;12.70;;;11.50;;
56997;SDS011;42890;44.244;22.530;2022-07-29T06:09:32;15.18;;;11.60;;
56997;SDS011;42890;44.244;22.530;2022-07-29T06:11:59;13.30;;;12.00;;
56997;SDS011;42890;44.244;22.530;2022-07-29T06:14:25;12.88;;;11.88;;
56997;SDS011;42890;44.244;22.530;2022-07-29T06:16:54;13.15;;;11.85;;
56997;SDS011;42890;44.244;22.530;2022-07-29T06:19:21;14.48;;;12.98;;
56997;SDS011;42890;44.244;22.530;2022-07-29T06:21:47;12.82;;;11.77;;
56997;SDS011;42890;44.244;22.530;2022-07-29T06:24:13;14.73;;;12.27;;
56997;SDS011;42890;44.244;22.530;2022-07-29T06:26:40;12.77;;;11.40;;
56997;SDS011;42890;44.244;22.530;2022-07-29T06:29:07;13.13;;;11.82;;
56997;SDS011;42890;44.244;22.530;2022-07-29T06:31:35;13.20;;;11.85;;
56997;SDS011;42890;44.244;22.530;2022-07-29T06:34:02;13.77;;;12.50;;
56997;SDS011;42890;44.244;22.530;2022-07-29T06:36:29;13.35;;;11.95;;
56997;SDS011;42890;44.244;22.530;2022-07-29T06:38:55;14.15;;;12.75;;
56997;SDS011;42890;44.244;22.530;2022-07-29T06:41:21;13.98;;;12.68;;
56997;SDS011;42890;44.244;22.530;2022-07-29T06:43:48;14.30;;;12.88;;
56997;SDS011;42890;44.244;22.530;2022-07-29T06:46:17;14.80;;;12.93;;
56997;SDS011;42890;44.244;22.530;2022-07-29T06:48:43;14.07;;;12.77;;
56997;SDS011;42890;44.244;22.530;2022-07-29T06:51:10;13.75;;;12.60;;
56997;SDS011;42890;44.244;22.530;2022-07-29T06:53:36;13.55;;;11.93;;
56997;SDS011;42890;44.244;22.530;2022-07-29T06:56:03;14.27;;;12.52;;
56997;SDS011;42890;44.244;22.530;2022-07-29T06:58:30;13.45;;;12.02;;
56997;SDS011;42890;44.244;22.530;2022-07-29T07:00:57;15.93;;;12.50;;
56997;SDS011;42890;44.244;22.530;2022-07-29T07:03:24;16.95;;;12.60;;
56997;SDS011;42890;44.244;22.530;2022-07-29T07:05:51;13.70;;;12.45;;
56997;SDS011;42890;44.244;22.530;2022-07-29T07:08:18;13.40;;;12.20;;
56997;SDS011;42890;44.244;22.530;2022-07-29T07:10:44;14.32;;;11.93;;
56997;SDS011;42890;44.244;22.530;2022-07-29T07:13:10;12.85;;;11.57;;
56997;SDS011;42890;44.244;22.530;2022-07-29T07:15:37;14.07;;;12.32;;
56997;SDS011;42890;44.244;22.530;2022-07-29T07:18:03;13.98;;;12.77;;
56997;SDS011;42890;44.244;22.530;2022-07-29T07:20:31;14.40;;;13.10;;
56997;SDS011;42890;44.244;22.530;2022-07-29T07:22:57;14.60;;;13.20;;
56997;SDS011;42890;44.244;22.530;2022-07-29T07:25:23;13.70;;;12.35;;
56997;SDS011;42890;44.244;22.530;2022-07-29T07:27:50;13.55;;;12.18;;
56997;SDS011;42890;44.244;22.530;2022-07-29T07:30:16;14.05;;;12.65;;
56997;SDS011;42890;44.244;22.530;2022-07-29T07:32:43;15.43;;;12.48;;
56997;SDS011;42890;44.244;22.530;2022-07-29T07:35:09;14.13;;;12.80;;
56997;SDS011;42890;44.244;22.530;2022-07-29T07:37:35;14.25;;;12.93;;
56997;SDS011;42890;44.244;22.530;2022-07-29T07:40:02;13.73;;;12.43;;
56997;SDS011;42890;44.244;22.530;2022-07-29T07:42:28;14.38;;;13.02;;
56997;SDS011;42890;44.244;22.530;2022-07-29T07:44:54;13.55;;;12.38;;
56997;SDS011;42890;44.244;22.530;2022-07-29T07:47:21;14.43;;;13.20;;
56997;SDS011;42890;44.244;22.530;2022-07-29T07:49:49;13.88;;;12.60;;
56997;SDS011;42890;44.244;22.530;2022-07-29T07:52:15;14.43;;;13.23;;
56997;SDS011;42890;44.244;22.530;2022-07-29T07:54:42;14.25;;;12.95;;
56997;SDS011;42890;44.244;22.530;2022-07-29T07:57:09;13.90;;;12.75;;
56997;SDS011;42890;44.244;22.530;2022-07-29T07:59:35;13.52;;;12.32;;
56997;SDS011;42890;44.244;22.530;2022-07-29T08:02:01;12.77;;;11.45;;
56997;SDS011;42890;44.244;22.530;2022-07-29T08:04:27;12.65;;;11.48;;
56997;SDS011;42890;44.244;22.530;2022-07-29T08:06:53;12.75;;;11.52;;
56997;SDS011;42890;44.244;22.530;2022-07-29T08:09:20;12.05;;;11.05;;
56997;SDS011;42890;44.244;22.530;2022-07-29T08:11:46;14.05;;;11.38;;
56997;SDS011;42890;44.244;22.530;2022-07-29T08:14:12;13.85;;;11.95;;
56997;SDS011;42890;44.244;22.530;2022-07-29T08:16:39;12.85;;;10.80;;
56997;SDS011;42890;44.244;22.530;2022-07-29T08:19:05;13.07;;;11.77;;
56997;SDS011;42890;44.244;22.530;2022-07-29T08:21:32;13.43;;;12.05;;
56997;SDS011;42890;44.244;22.530;2022-07-29T08:23:58;14.45;;;12.02;;
56997;SDS011;42890;44.244;22.530;2022-07-29T08:26:43;12.18;;;10.88;;
56997;SDS011;42890;44.244;22.530;2022-07-29T08:29:09;11.90;;;10.77;;
56997;SDS011;42890;44.244;22.530;2022-07-29T08:31:36;12.75;;;11.43;;
56997;SDS011;42890;44.244;22.530;2022-07-29T08:34:02;14.38;;;10.88;;
56997;SDS011;42890;44.244;22.530;2022-07-29T08:36:29;17.25;;;11.65;;
56997;SDS011;42890;44.244;22.530;2022-07-29T08:38:55;14.93;;;11.43;;
56997;SDS011;42890;44.244;22.530;2022-07-29T08:41:21;12.65;;;11.45;;
56997;SDS011;42890;44.244;22.530;2022-07-29T08:43:48;12.75;;;11.52;;
56997;SDS011;42890;44.244;22.530;2022-07-29T08:46:15;12.30;;;11.18;;
56997;SDS011;42890;44.244;22.530;2022-07-29T08:48:42;12.70;;;11.57;;
56997;SDS011;42890;44.244;22.530;2022-07-29T08:51:08;12.82;;;11.65;;
56997;SDS011;42890;44.244;22.530;2022-07-29T08:53:39;12.32;;;11.13;;
56997;SDS011;42890;44.244;22.530;2022-07-29T08:56:06;13.05;;;11.60;;
56997;SDS011;42890;44.244;22.530;2022-07-29T08:58:33;11.68;;;10.68;;
56997;SDS011;42890;44.244;22.530;2022-07-29T09:01:00;12.20;;;10.95;;
56997;SDS011;42890;44.244;22.530;2022-07-29T09:03:31;13.05;;;11.02;;
56997;SDS011;42890;44.244;22.530;2022-07-29T09:05:58;11.80;;;10.35;;
56997;SDS011;42890;44.244;22.530;2022-07-29T09:08:24;12.82;;;10.25;;
56997;SDS011;42890;44.244;22.530;2022-07-29T09:10:50;11.68;;;10.65;;
56997;SDS011;42890;44.244;22.530;2022-07-29T09:13:17;12.50;;;9.70;;
56997;SDS011;42890;44.244;22.530;2022-07-29T09:15:43;11.52;;;10.48;;
56997;SDS011;42890;44.244;22.530;2022-07-29T09:18:09;11.50;;;10.35;;
56997;SDS011;42890;44.244;22.530;2022-07-29T09:20:36;12.63;;;9.95;;
56997;SDS011;42890;44.244;22.530;2022-07-29T09:23:34;11.55;;;10.43;;
56997;SDS011;42890;44.244;22.530;2022-07-29T09:26:03;12.88;;;10.38;;
56997;SDS011;42890;44.244;22.530;2022-07-29T09:28:30;11.15;;;10.23;;
56997;SDS011;42890;44.244;22.530;2022-07-29T09:30:57;11.38;;;10.18;;
56997;SDS011;42890;44.244;22.530;2022-07-29T09:33:31;10.98;;;10.00;;
56997;SDS011;42890;44.244;22.530;2022-07-29T09:36:00;11.65;;;10.63;;
56997;SDS011;42890;44.244;22.530;2022-07-29T09:38:31;10.95;;;10.00;;
56997;SDS011;42890;44.244;22.530;2022-07-29T09:40:58;14.90;;;10.35;;
56997;SDS011;42890;44.244;22.530;2022-07-29T09:43:24;12.60;;;10.13;;
56997;SDS011;42890;44.244;22.530;2022-07-29T09:45:50;11.25;;;10.27;;
56997;SDS011;42890;44.244;22.530;2022-07-29T09:48:20;11.02;;;9.07;;
56997;SDS011;42890;44.244;22.530;2022-07-29T09:50:47;10.48;;;9.13;;
56997;SDS011;42890;44.244;22.530;2022-07-29T09:55:59;11.15;;;10.23;;
56997;SDS011;42890;44.244;22.530;2022-07-29T09:58:25;10.70;;;9.70;;
56997;SDS011;42890;44.244;22.530;2022-07-29T10:00:52;11.82;;;8.73;;
56997;SDS011;42890;44.244;22.530;2022-07-29T10:03:18;9.43;;;8.63;;
56997;SDS011;42890;44.244;22.530;2022-07-29T10:05:45;10.77;;;9.02;;
56997;SDS011;42890;44.244;22.530;2022-07-29T10:08:11;9.85;;;8.85;;
56997;SDS011;42890;44.244;22.530;2022-07-29T10:10:39;10.82;;;8.48;;
56997;SDS011;42890;44.244;22.530;2022-07-29T10:13:09;13.10;;;9.07;;
56997;SDS011;42890;44.244;22.530;2022-07-29T10:15:36;10.05;;;9.05;;
56997;SDS011;42890;44.244;22.530;2022-07-29T10:18:04;11.65;;;9.40;;
56997;SDS011;42890;44.244;22.530;2022-07-29T10:20:30;12.93;;;8.75;;
56997;SDS011;42890;44.244;22.530;2022-07-29T10:22:57;9.93;;;9.18;;
56997;SDS011;42890;44.244;22.530;2022-07-29T10:25:23;12.15;;;9.32;;
56997;SDS011;42890;44.244;22.530;2022-07-29T10:27:50;9.77;;;8.85;;
56997;SDS011;42890;44.244;22.530;2022-07-29T10:30:17;12.32;;;9.70;;
56997;SDS011;42890;44.244;22.530;2022-07-29T10:37:46;8.90;;;8.25;;
56997;SDS011;42890;44.244;22.530;2022-07-29T10:40:26;10.50;;;9.13;;
56997;SDS011;42890;44.244;22.530;2022-07-29T10:43:22;13.88;;;9.27;;
56997;SDS011;42890;44.244;22.530;2022-07-29T10:45:54;9.52;;;8.50;;
56997;SDS011;42890;44.244;22.530;2022-07-29T10:48:21;10.50;;;8.52;;
56997;SDS011;42890;44.244;22.530;2022-07-29T11:01:35;14.45;;;8.02;;
56997;SDS011;42890;44.244;22.530;2022-07-29T11:04:01;17.05;;;8.32;;
56997;SDS011;42890;44.244;22.530;2022-07-29T11:07:05;10.15;;;8.80;;
56997;SDS011;42890;44.244;22.530;2022-07-29T11:09:16;9.15;;;8.35;;
56997;SDS011;42890;44.244;22.530;2022-07-29T11:11:43;9.25;;;8.45;;
56997;SDS011;42890;44.244;22.530;2022-07-29T11:14:10;9.70;;;8.80;;
56997;SDS011;42890;44.244;22.530;2022-07-29T11:19:22;10.80;;;8.80;;
56997;SDS011;42890;44.244;22.530;2022-07-29T11:21:48;14.13;;;8.50;;
56997;SDS011;42890;44.244;22.530;2022-07-29T11:24:15;9.30;;;8.30;;
56997;SDS011;42890;44.244;22.530;2022-07-29T11:26:42;9.55;;;8.63;;
56997;SDS011;42890;44.244;22.530;2022-07-29T11:29:16;9.43;;;7.82;;
56997;SDS011;42890;44.244;22.530;2022-07-29T11:31:45;9.57;;;8.52;;
56997;SDS011;42890;44.244;22.530;2022-07-29T11:34:20;11.63;;;8.15;;
56997;SDS011;42890;44.244;22.530;2022-07-29T11:39:32;11.35;;;8.23;;
56997;SDS011;42890;44.244;22.530;2022-07-29T11:45:05;11.23;;;8.15;;
56997;SDS011;42890;44.244;22.530;2022-07-29T11:47:46;8.55;;;7.45;;
56997;SDS011;42890;44.244;22.530;2022-07-29T11:50:17;8.80;;;7.90;;
56997;SDS011;42890;44.244;22.530;2022-07-29T11:52:52;8.13;;;7.45;;
56997;SDS011;42890;44.244;22.530;2022-07-29T11:55:19;8.57;;;7.47;;
56997;SDS011;42890;44.244;22.530;2022-07-29T11:57:53;11.35;;;8.40;;
56997;SDS011;42890;44.244;22.530;2022-07-29T12:00:27;8.10;;;7.47;;
56997;SDS011;42890;44.244;22.530;2022-07-29T12:02:54;8.25;;;7.45;;
56997;SDS011;42890;44.244;22.530;2022-07-29T12:05:20;10.45;;;7.95;;
56997;SDS011;42890;44.244;22.530;2022-07-29T12:07:47;10.32;;;8.15;;
56997;SDS011;42890;44.244;22.530;2022-07-29T12:10:14;12.80;;;7.93;;
56997;SDS011;42890;44.244;22.530;2022-07-29T12:12:40;8.68;;;7.88;;
56997;SDS011;42890;44.244;22.530;2022-07-29T12:15:16;9.60;;;7.78;;
56997;SDS011;42890;44.244;22.530;2022-07-29T12:17:45;9.93;;;7.57;;
56997;SDS011;42890;44.244;22.530;2022-07-29T12:20:11;7.45;;;6.70;;
56997;SDS011;42890;44.244;22.530;2022-07-29T12:22:39;8.32;;;7.30;;
56997;SDS011;42890;44.244;22.530;2022-07-29T12:25:13;9.32;;;7.70;;
56997;SDS011;42890;44.244;22.530;2022-07-29T12:27:42;9.82;;;7.22;;
56997;SDS011;42890;44.244;22.530;2022-07-29T12:30:09;9.05;;;7.18;;
56997;SDS011;42890;44.244;22.530;2022-07-29T12:32:37;7.70;;;6.93;;
56997;SDS011;42890;44.244;22.530;2022-07-29T12:35:04;10.07;;;6.95;;
56997;SDS011;42890;44.244;22.530;2022-07-29T12:37:32;8.13;;;6.57;;
56997;SDS011;42890;44.244;22.530;2022-07-29T12:39:59;7.32;;;6.55;;
56997;SDS011;42890;44.244;22.530;2022-07-29T12:42:25;8.40;;;6.80;;
56997;SDS011;42890;44.244;22.530;2022-07-29T12:44:51;7.10;;;6.45;;
56997;SDS011;42890;44.244;22.530;2022-07-29T12:47:18;9.63;;;6.60;;
56997;SDS011;42890;44.244;22.530;2022-07-29T12:49:45;14.77;;;6.90;;
56997;SDS011;42890;44.244;22.530;2022-07-29T12:52:28;7.03;;;6.38;;
56997;SDS011;42890;44.244;22.530;2022-07-29T12:54:54;9.05;;;6.10;;
56997;SDS011;42890;44.244;22.530;2022-07-29T12:57:20;8.75;;;6.53;;
56997;SDS011;42890;44.244;22.530;2022-07-29T13:02:39;7.78;;;6.30;;
56997;SDS011;42890;44.244;22.530;2022-07-29T13:05:06;10.05;;;5.88;;
56997;SDS011;42890;44.244;22.530;2022-07-29T13:07:33;6.93;;;6.22;;
56997;SDS011;42890;44.244;22.530;2022-07-29T13:13:00;10.23;;;6.07;;
56997;SDS011;42890;44.244;22.530;2022-07-29T13:15:26;10.50;;;6.15;;
56997;SDS011;42890;44.244;22.530;2022-07-29T13:17:52;7.38;;;6.63;;
56997;SDS011;42890;44.244;22.530;2022-07-29T13:20:18;7.75;;;6.00;;
56997;SDS011;42890;44.244;22.530;2022-07-29T13:22:47;8.35;;;6.53;;
56997;SDS011;42890;44.244;22.530;2022-07-29T13:25:14;8.60;;;6.40;;
56997;SDS011;42890;44.244;22.530;2022-07-29T13:27:40;8.18;;;5.80;;
56997;SDS011;42890;44.244;22.530;2022-07-29T13:30:07;8.60;;;6.25;;
56997;SDS011;42890;44.244;22.530;2022-07-29T13:32:34;9.55;;;6.10;;
56997;SDS011;42890;44.244;22.530;2022-07-29T13:35:02;6.35;;;5.75;;
56997;SDS011;42890;44.244;22.530;2022-07-29T13:37:29;7.20;;;5.40;;
56997;SDS011;42890;44.244;22.530;2022-07-29T13:39:57;6.03;;;5.43;;
56997;SDS011;42890;44.244;22.530;2022-07-29T13:42:24;6.88;;;6.20;;
56997;SDS011;42890;44.244;22.530;2022-07-29T13:44:50;7.07;;;5.53;;
56997;SDS011;42890;44.244;22.530;2022-07-29T13:47:20;17.15;;;5.97;;
56997;SDS011;42890;44.244;22.530;2022-07-29T13:49:47;8.30;;;5.45;;
56997;SDS011;42890;44.244;22.530;2022-07-29T13:52:13;10.20;;;5.80;;
56997;SDS011;42890;44.244;22.530;2022-07-29T13:54:40;6.63;;;5.43;;
56997;SDS011;42890;44.244;22.530;2022-07-29T13:57:06;8.48;;;5.70;;
56997;SDS011;42890;44.244;22.530;2022-07-29T13:59:33;7.45;;;5.45;;
56997;SDS011;42890;44.244;22.530;2022-07-29T14:01:59;16.30;;;5.78;;
56997;SDS011;42890;44.244;22.530;2022-07-29T14:04:25;5.60;;;5.07;;
56997;SDS011;42890;44.244;22.530;2022-07-29T14:06:51;12.73;;;6.03;;
56997;SDS011;42890;44.244;22.530;2022-07-29T14:09:18;9.40;;;5.30;;
56997;SDS011;42890;44.244;22.530;2022-07-29T14:11:44;12.50;;;5.40;;
56997;SDS011;42890;44.244;22.530;2022-07-29T14:14:10;5.35;;;4.75;;
56997;SDS011;42890;44.244;22.530;2022-07-29T14:16:37;6.25;;;4.85;;
56997;SDS011;42890;44.244;22.530;2022-07-29T14:19:03;8.88;;;5.50;;
56997;SDS011;42890;44.244;22.530;2022-07-29T14:21:29;7.43;;;5.32;;
56997;SDS011;42890;44.244;22.530;2022-07-29T14:23:55;9.73;;;5.10;;
56997;SDS011;42890;44.244;22.530;2022-07-29T14:26:21;6.60;;;5.28;;
56997;SDS011;42890;44.244;22.530;2022-07-29T14:28:48;5.72;;;5.22;;
56997;SDS011;42890;44.244;22.530;2022-07-29T14:31:14;7.38;;;5.10;;
56997;SDS011;42890;44.244;22.530;2022-07-29T14:33:41;7.63;;;5.25;;
56997;SDS011;42890;44.244;22.530;2022-07-29T14:36:07;8.07;;;5.00;;
56997;SDS011;42890;44.244;22.530;2022-07-29T14:38:34;4.85;;;4.45;;
56997;SDS011;42890;44.244;22.530;2022-07-29T14:41:00;5.47;;;4.53;;
56997;SDS011;42890;44.244;22.530;2022-07-29T14:43:28;5.22;;;4.00;;
56997;SDS011;42890;44.244;22.530;2022-07-29T14:45:54;6.25;;;4.30;;
56997;SDS011;42890;44.244;22.530;2022-07-29T14:48:20;5.82;;;3.97;;
56997;SDS011;42890;44.244;22.530;2022-07-29T14:50:46;5.90;;;3.80;;
56997;SDS011;42890;44.244;22.530;2022-07-29T14:53:13;6.93;;;3.78;;
56997;SDS011;42890;44.244;22.530;2022-07-29T14:55:39;4.30;;;3.83;;
56997;SDS011;42890;44.244;22.530;2022-07-29T14:58:07;9.48;;;4.43;;
56997;SDS011;42890;44.244;22.530;2022-07-29T15:00:33;5.18;;;4.50;;
56997;SDS011;42890;44.244;22.530;2022-07-29T15:03:00;4.43;;;4.00;;
56997;SDS011;42890;44.244;22.530;2022-07-29T15:05:27;4.05;;;3.47;;
56997;SDS011;42890;44.244;22.530;2022-07-29T15:07:53;6.53;;;4.03;;
56997;SDS011;42890;44.244;22.530;2022-07-29T15:10:19;6.15;;;3.88;;
56997;SDS011;42890;44.244;22.530;2022-07-29T15:12:45;5.25;;;3.85;;